Time;durP1;ratioP1;P1;durP2;ratioP2;P2;SDS_P1;SDS_P2;PMS_P1;PMS_P2;Temp;Humidity;BMP_temperature;BMP_pressure;BME280_temperature;BME280_humidity;BME280_pressure;Samples;Min_cycle;Max_cycle;Signal;HPM_P1;HPM_P2
2022/01/19 00:01:30;;;;;;;;;;;6.70;93.20;;;;;;5065388;28;19921;-59
2022/01/19 00:03:56;;;;;;;;;;;6.70;93.20;;;;;;5043333;28;19909;-59
2022/01/19 00:06:21;;;;;;;;;;;6.70;93.20;;;;;;5057767;28;20273;-59
2022/01/19 00:08:47;;;;;;;;;;;6.60;93.20;;;;;;5063748;28;19916;-59
2022/01/19 00:11:12;;;;;;;;;;;6.60;93.20;;;;;;5069635;28;19966;-59
2022/01/19 00:13:38;;;;;;;;;;;6.60;93.20;;;;;;5069251;28;19915;-59
2022/01/19 00:16:04;;;;;;;;;;;6.60;93.20;;;;;;5061266;28;19920;-61
2022/01/19 00:18:29;;;;;;;;;;;6.60;93.20;;;;;;5066789;28;20041;-60
2022/01/19 00:20:55;;;;;;;;;;;6.60;93.20;;;;;;5048498;28;19913;-59
2022/01/19 00:23:20;;;;;;;;;;;6.60;93.20;;;;;;5037989;28;20224;-59
2022/01/19 00:25:46;;;;;;;;;;;6.60;93.20;;;;;;5051442;28;19916;-59
2022/01/19 00:28:11;;;;;;;;;;;6.60;93.20;;;;;;5063872;28;19916;-60
2022/01/19 00:30:37;;;;;;;;;;;6.60;93.20;;;;;;5044154;28;19916;-59
2022/01/19 00:33:02;;;;;;;;;;;6.60;93.10;;;;;;5058869;28;20051;-59
2022/01/19 00:35:28;;;;;;;;;;;6.60;93.10;;;;;;5062681;28;19920;-59
2022/01/19 00:37:53;;;;;;;;;;;6.60;93.10;;;;;;5054299;28;19916;-60
2022/01/19 00:40:19;;;;;;;;;;;6.60;93.10;;;;;;5063623;28;19913;-59
2022/01/19 00:42:45;;;;;;;;;;;6.60;93.10;;;;;;5048330;28;19916;-60
2022/01/19 00:45:10;;;;;;;;;;;6.60;93.10;;;;;;5040733;28;19912;-60
2022/01/19 00:47:36;;;;;;;;;;;6.60;93.10;;;;;;5065828;28;20376;-59
2022/01/19 00:50:02;;;;;;;;;;;6.60;93.10;;;;;;5056640;28;19916;-59
2022/01/19 00:52:27;;;;;;;;;;;6.60;93.00;;;;;;5059344;28;19921;-60
2022/01/19 00:54:53;;;;;;;;;;;6.60;93.10;;;;;;5071986;28;19909;-60
2022/01/19 00:57:18;;;;;;;;;;;6.60;93.10;;;;;;5067472;28;19935;-60
2022/01/19 00:59:44;;;;;;;;;;;6.50;93.10;;;;;;5047321;28;19994;-60
2022/01/19 01:02:09;;;;;;;;;;;6.60;93.10;;;;;;5063579;28;19925;-59
2022/01/19 01:04:35;;;;;;;;;;;6.50;93.10;;;;;;5088931;28;20216;-59
2022/01/19 01:07:00;;;;;;;;;;;6.60;93.10;;;;;;5073863;28;19913;-60
2022/01/19 01:09:26;;;;;;;;;;;6.50;93.10;;;;;;5070561;28;19912;-59
2022/01/19 01:12:09;;;;;;;;;;;6.50;93.00;;;;;;5068118;28;19966;-60
2022/01/19 01:20:04;;;;;;;;;;;6.50;93.10;;;;;;5077891;28;20347;-59
2022/01/19 01:22:30;;;;;;;;;;;6.50;93.00;;;;;;5063578;28;20271;-59
2022/01/19 01:24:55;;;;;;;;;;;6.50;93.00;;;;;;5064931;28;19908;-60
2022/01/19 01:27:21;;;;;;;;;;;6.50;93.00;;;;;;5076036;28;19912;-60
2022/01/19 01:29:46;;;;;;;;;;;6.50;93.00;;;;;;5083779;28;20459;-60
2022/01/19 01:32:12;;;;;;;;;;;6.50;93.00;;;;;;5080774;28;20117;-60
2022/01/19 01:34:37;;;;;;;;;;;6.50;93.00;;;;;;5068335;28;20295;-60
2022/01/19 01:37:03;;;;;;;;;;;6.50;92.90;;;;;;5078930;28;19938;-60
2022/01/19 01:39:28;;;;;;;;;;;6.50;93.00;;;;;;5064924;28;19912;-60
2022/01/19 01:41:54;;;;;;;;;;;6.50;92.90;;;;;;5071487;28;20397;-60
2022/01/19 01:44:19;;;;;;;;;;;6.50;92.90;;;;;;5058770;28;19909;-60
2022/01/19 01:46:49;;;;;;;;;;;6.50;92.90;;;;;;5070600;28;19950;-60
2022/01/19 01:54:56;;;;;;;;;;;6.50;92.90;;;;;;5084057;28;19915;-59
2022/01/19 01:57:22;;;;;;;;;;;6.50;92.90;;;;;;5070257;28;20019;-60
2022/01/19 01:59:47;;;;;;;;;;;6.50;92.90;;;;;;5068523;28;19958;-60
2022/01/19 02:02:13;;;;;;;;;;;6.50;92.90;;;;;;5052812;28;19925;-60
2022/01/19 02:04:41;;;;;;;;;;;6.50;92.90;;;;;;5067410;28;20402;-60
2022/01/19 02:09:44;;;;;;;;;;;6.50;92.90;;;;;;5081053;28;19944;-59
2022/01/19 02:23:16;;;;;;;;;;;6.50;92.90;;;;;;5075269;28;20411;-59
2022/01/19 02:25:44;;;;;;;;;;;6.50;92.80;;;;;;5066793;28;19908;-59
2022/01/19 02:41:33;;;;;;;;;;;6.40;92.80;;;;;;5076152;28;19919;-60
2022/01/19 02:43:59;;;;;;;;;;;6.40;92.80;;;;;;5080603;28;19943;-59
2022/01/19 02:49:25;;;;;;;;;;;6.40;92.90;;;;;;5058730;28;19917;-60
2022/01/19 02:51:51;;;;;;;;;;;6.40;92.80;;;;;;5074800;28;20006;-59
2022/01/19 02:54:18;;;;;;;;;;;6.40;92.80;;;;;;5060398;28;19913;-59
2022/01/19 02:56:47;;;;;;;;;;;6.40;92.80;;;;;;5067105;28;19912;-60
2022/01/19 02:59:23;;;;;;;;;;;6.40;92.90;;;;;;5067131;28;20191;-59
2022/01/19 03:09:45;;;;;;;;;;;6.40;92.80;;;;;;5083543;28;19912;-59
2022/01/19 03:12:11;;;;;;;;;;;6.40;92.80;;;;;;5073794;28;19920;-59
2022/01/19 03:14:36;;;;;;;;;;;6.40;92.80;;;;;;5063035;28;19913;-60
2022/01/19 03:17:02;;;;;;;;;;;6.40;92.80;;;;;;5083301;28;19916;-59
2022/01/19 03:19:29;;;;;;;;;;;6.40;92.80;;;;;;5078897;28;19939;-59
2022/01/19 03:21:55;;;;;;;;;;;6.50;92.80;;;;;;5083034;28;20410;-59
2022/01/19 03:24:20;;;;;;;;;;;6.40;92.80;;;;;;5070583;28;20046;-60
2022/01/19 03:26:46;;;;;;;;;;;6.40;92.80;;;;;;5074027;28;20387;-59
2022/01/19 03:29:11;;;;;;;;;;;6.40;92.80;;;;;;5087123;28;19908;-59
2022/01/19 03:31:37;;;;;;;;;;;6.40;92.80;;;;;;5084766;28;20272;-59
2022/01/19 03:34:02;;;;;;;;;;;6.40;92.70;;;;;;5086489;28;19985;-60
2022/01/19 03:36:28;;;;;;;;;;;6.40;92.70;;;;;;5090756;28;19908;-59
2022/01/19 03:38:53;;;;;;;;;;;6.40;92.70;;;;;;5090784;28;19915;-60
2022/01/19 03:41:19;;;;;;;;;;;6.40;92.70;;;;;;5090244;28;19915;-60
2022/01/19 03:43:44;;;;;;;;;;;6.40;92.70;;;;;;5070397;28;20196;-60
2022/01/19 03:46:14;;;;;;;;;;;6.30;92.70;;;;;;5087795;28;20299;-60
2022/01/19 03:48:51;;;;;;;;;;;6.40;92.70;;;;;;5091900;28;19995;-60
2022/01/19 03:51:17;;;;;;;;;;;6.30;92.60;;;;;;5075133;28;19919;-60
2022/01/19 03:53:42;;;;;;;;;;;6.40;92.70;;;;;;5070568;28;19912;-60
2022/01/19 03:56:08;;;;;;;;;;;6.30;92.60;;;;;;5087499;28;19916;-60
2022/01/19 03:58:33;;;;;;;;;;;6.40;92.70;;;;;;5080285;28;19912;-59
2022/01/19 04:00:59;;;;;;;;;;;6.40;92.60;;;;;;5085808;28;19953;-60
2022/01/19 04:06:29;;;;;;;;;;;6.40;92.60;;;;;;5074765;28;19946;-59
2022/01/19 04:08:55;;;;;;;;;;;6.30;92.50;;;;;;5072407;28;19926;-60
2022/01/19 04:11:22;;;;;;;;;;;6.30;92.50;;;;;;5081611;28;19912;-60
2022/01/19 04:16:22;;;;;;;;;;;6.30;92.60;;;;;;5090224;28;19977;-60
2022/01/19 04:18:48;;;;;;;;;;;6.30;92.60;;;;;;5066997;28;20344;-59
2022/01/19 04:21:14;;;;;;;;;;;6.30;92.60;;;;;;5074725;28;19951;-60
2022/01/19 04:23:39;;;;;;;;;;;6.30;92.60;;;;;;5068005;28;20095;-60
2022/01/19 04:26:05;;;;;;;;;;;6.30;92.60;;;;;;5085025;28;19912;-60
2022/01/19 04:28:30;;;;;;;;;;;6.30;92.60;;;;;;5066280;28;19914;-60
2022/01/19 04:30:56;;;;;;;;;;;6.30;92.60;;;;;;5067338;28;19907;-60
2022/01/19 04:33:25;;;;;;;;;;;6.30;92.70;;;;;;5070909;28;20487;-60
2022/01/19 04:35:52;;;;;;;;;;;6.20;92.60;;;;;;5085578;28;19908;-59
2022/01/19 05:03:17;;;;;;;;;;;6.20;92.60;;;;;;5081154;28;20286;-61
2022/01/19 05:05:51;;;;;;;;;;;6.20;92.60;;;;;;5092082;28;19919;-60
2022/01/19 05:08:39;;;;;;;;;;;6.20;92.60;;;;;;5085716;28;20044;-60
2022/01/19 05:13:52;;;;;;;;;;;6.20;92.70;;;;;;5089954;28;19938;-60
2022/01/19 05:16:21;;;;;;;;;;;6.20;92.70;;;;;;5084749;28;19919;-59
2022/01/19 05:18:47;;;;;;;;;;;6.20;92.60;;;;;;5069749;28;19918;-60
2022/01/19 05:21:12;;;;;;;;;;;6.10;92.60;;;;;;5105954;28;19953;-60
2022/01/19 05:23:38;;;;;;;;;;;6.10;92.60;;;;;;5084941;28;19955;-59
2022/01/19 05:26:03;;;;;;;;;;;6.20;92.60;;;;;;5100025;28;19912;-60
2022/01/19 05:28:29;;;;;;;;;;;6.20;92.50;;;;;;5064466;28;20427;-60
2022/01/19 05:30:54;;;;;;;;;;;6.20;92.40;;;;;;5084320;28;19960;-60
2022/01/19 05:33:20;;;;;;;;;;;6.10;92.40;;;;;;5077144;28;19923;-59
2022/01/19 05:35:45;;;;;;;;;;;6.20;92.40;;;;;;5085775;28;19991;-59
2022/01/19 05:38:10;;;;;;;;;;;6.10;92.40;;;;;;5067214;28;19907;-60
2022/01/19 05:40:36;;;;;;;;;;;6.10;92.50;;;;;;5073741;28;20275;-59
2022/01/19 05:43:01;;;;;;;;;;;6.10;92.50;;;;;;5090475;28;19933;-60
2022/01/19 05:45:27;;;;;;;;;;;6.10;92.50;;;;;;5103595;28;19912;-60
2022/01/19 05:47:52;;;;;;;;;;;6.10;92.50;;;;;;5102302;28;19912;-60
2022/01/19 05:50:18;;;;;;;;;;;6.10;92.50;;;;;;5079582;28;20015;-59
2022/01/19 05:52:43;;;;;;;;;;;6.10;92.50;;;;;;5080548;28;19919;-59
2022/01/19 05:55:09;;;;;;;;;;;6.10;92.50;;;;;;5073050;28;19911;-60
2022/01/19 05:57:34;;;;;;;;;;;6.10;92.50;;;;;;5065932;28;19907;-59
2022/01/19 06:00:00;;;;;;;;;;;6.10;92.50;;;;;;5081635;28;19915;-60
2022/01/19 06:02:25;;;;;;;;;;;6.10;92.50;;;;;;5083821;28;19972;-60
2022/01/19 06:04:51;;;;;;;;;;;6.10;92.50;;;;;;5086774;28;19915;-59
2022/01/19 06:07:16;;;;;;;;;;;6.10;92.50;;;;;;5067856;28;20261;-60
2022/01/19 06:12:08;;;;;;;;;;;6.00;92.50;;;;;;5087495;27;19920;-59
2022/01/19 06:14:34;;;;;;;;;;;6.00;92.40;;;;;;5069419;28;19919;-60
2022/01/19 06:16:59;;;;;;;;;;;6.00;92.40;;;;;;5090774;27;19907;-60
2022/01/19 06:19:25;;;;;;;;;;;6.00;92.50;;;;;;5092526;28;20393;-60
2022/01/19 06:21:50;;;;;;;;;;;6.00;92.50;;;;;;5062157;28;20198;-60
2022/01/19 06:24:16;;;;;;;;;;;6.00;92.50;;;;;;5078231;28;20045;-59
2022/01/19 06:26:41;;;;;;;;;;;6.00;92.50;;;;;;5070684;28;19912;-60
2022/01/19 06:29:07;;;;;;;;;;;6.00;92.50;;;;;;5081850;28;19916;-59
2022/01/19 06:31:32;;;;;;;;;;;6.00;92.50;;;;;;5080594;28;19931;-60
2022/01/19 06:33:58;;;;;;;;;;;6.00;92.60;;;;;;5104577;27;19912;-59
2022/01/19 06:36:23;;;;;;;;;;;6.00;92.60;;;;;;5102648;28;19911;-59
2022/01/19 06:38:48;;;;;;;;;;;6.00;92.60;;;;;;5081810;28;20351;-60
2022/01/19 06:41:14;;;;;;;;;;;6.00;92.70;;;;;;5076713;28;19922;-59
2022/01/19 06:43:39;;;;;;;;;;;6.00;92.70;;;;;;5077426;28;19934;-60
2022/01/19 06:46:05;;;;;;;;;;;6.00;92.70;;;;;;5080154;28;19918;-60
2022/01/19 06:48:30;;;;;;;;;;;6.00;92.70;;;;;;5080632;28;19916;-59
2022/01/19 06:50:56;;;;;;;;;;;6.00;92.60;;;;;;5077385;28;20059;-60
2022/01/19 06:53:21;;;;;;;;;;;6.00;92.70;;;;;;5074021;28;19915;-59
2022/01/19 06:55:47;;;;;;;;;;;5.90;92.70;;;;;;5080558;28;19923;-59
2022/01/19 06:58:12;;;;;;;;;;;5.90;92.70;;;;;;5071981;28;19922;-60
2022/01/19 07:00:38;;;;;;;;;;;5.90;92.60;;;;;;5072877;28;20393;-60
2022/01/19 07:03:03;;;;;;;;;;;5.90;92.60;;;;;;5066238;28;20346;-59
2022/01/19 07:05:29;;;;;;;;;;;5.90;92.60;;;;;;5073608;28;19948;-59
2022/01/19 07:07:57;;;;;;;;;;;6.00;92.60;;;;;;5073764;28;19962;-60
2022/01/19 07:10:22;;;;;;;;;;;5.90;92.50;;;;;;5085601;28;20011;-60
2022/01/19 07:12:48;;;;;;;;;;;5.90;92.60;;;;;;5088445;28;19994;-60
2022/01/19 07:15:13;;;;;;;;;;;5.90;92.60;;;;;;5073606;28;19915;-60
2022/01/19 07:17:39;;;;;;;;;;;5.90;92.60;;;;;;5065248;28;19915;-60
2022/01/19 07:20:04;;;;;;;;;;;5.90;92.50;;;;;;5082561;28;19911;-60
2022/01/19 07:22:30;;;;;;;;;;;5.90;92.60;;;;;;5073335;28;20440;-59
2022/01/19 07:24:58;;;;;;;;;;;5.90;92.50;;;;;;5091292;28;20029;-60
2022/01/19 07:27:24;;;;;;;;;;;5.90;92.50;;;;;;5075510;28;20259;-59
2022/01/19 07:29:49;;;;;;;;;;;5.90;92.50;;;;;;5069609;28;19968;-60
2022/01/19 07:32:15;;;;;;;;;;;5.90;92.60;;;;;;5086848;28;19922;-60
2022/01/19 07:34:40;;;;;;;;;;;5.90;92.50;;;;;;5085816;28;20022;-60
2022/01/19 07:37:06;;;;;;;;;;;5.80;92.50;;;;;;5090334;28;19951;-59
2022/01/19 07:39:31;;;;;;;;;;;5.80;92.50;;;;;;5084121;28;19915;-60
2022/01/19 07:41:57;;;;;;;;;;;5.80;92.40;;;;;;5077855;28;19970;-59
2022/01/19 07:44:23;;;;;;;;;;;5.80;92.40;;;;;;5089917;27;19923;-60
2022/01/19 07:46:48;;;;;;;;;;;5.80;92.50;;;;;;5097490;28;19941;-60
2022/01/19 07:49:14;;;;;;;;;;;5.80;92.50;;;;;;5077976;28;19957;-60
2022/01/19 07:51:40;;;;;;;;;;;5.80;92.50;;;;;;5083439;28;19980;-60
2022/01/19 07:54:05;;;;;;;;;;;5.80;92.50;;;;;;5079270;28;20123;-60
2022/01/19 07:56:31;;;;;;;;;;;5.80;92.40;;;;;;5084215;28;19912;-61
2022/01/19 07:58:56;;;;;;;;;;;5.80;92.40;;;;;;5076638;28;19924;-59
2022/01/19 08:01:22;;;;;;;;;;;5.80;92.40;;;;;;5068286;28;19913;-60
2022/01/19 08:03:47;;;;;;;;;;;5.80;92.40;;;;;;5061118;28;19935;-60
2022/01/19 08:06:13;;;;;;;;;;;5.80;92.40;;;;;;5014384;28;19931;-60
2022/01/19 08:08:38;;;;;;;;;;;5.80;92.40;;;;;;5034439;28;19912;-60
2022/01/19 08:11:04;;;;;;;;;;;5.80;92.40;;;;;;5053925;28;19940;-60
2022/01/19 08:13:29;;;;;;;;;;;5.90;92.40;;;;;;5066798;28;19992;-60
2022/01/19 08:15:55;;;;;;;;;;;5.80;92.30;;;;;;5062299;28;19920;-60
2022/01/19 08:18:20;;;;;;;;;;;5.80;92.30;;;;;;5044578;28;20008;-60
2022/01/19 08:20:46;;;;;;;;;;;5.90;92.40;;;;;;5058491;28;19912;-60
2022/01/19 08:23:11;;;;;;;;;;;5.80;92.30;;;;;;5059886;28;19912;-60
2022/01/19 08:25:37;;;;;;;;;;;5.80;92.40;;;;;;5060455;28;19951;-60
2022/01/19 08:28:02;;;;;;;;;;;5.90;92.30;;;;;;5043398;28;19916;-60
2022/01/19 08:30:28;;;;;;;;;;;5.90;92.20;;;;;;5067092;28;20604;-60
2022/01/19 08:32:53;;;;;;;;;;;5.90;92.20;;;;;;5061304;28;19943;-60
2022/01/19 08:35:19;;;;;;;;;;;5.90;92.30;;;;;;5068030;28;19916;-59
2022/01/19 08:37:44;;;;;;;;;;;5.90;92.30;;;;;;5061282;28;19919;-59
2022/01/19 08:40:10;;;;;;;;;;;5.90;92.30;;;;;;5057665;28;20228;-59
2022/01/19 08:42:36;;;;;;;;;;;5.90;92.20;;;;;;5036197;28;19920;-60
2022/01/19 08:45:05;;;;;;;;;;;5.90;92.20;;;;;;5055900;28;19935;-60
2022/01/19 08:47:31;;;;;;;;;;;5.90;92.10;;;;;;5062603;28;19952;-59
2022/01/19 08:49:57;;;;;;;;;;;5.90;92.10;;;;;;5059392;28;20380;-60
2022/01/19 08:52:22;;;;;;;;;;;5.90;92.10;;;;;;5037750;28;19936;-60
2022/01/19 08:54:48;;;;;;;;;;;5.90;92.10;;;;;;5057093;28;20368;-60
2022/01/19 08:57:13;;;;;;;;;;;5.90;92.10;;;;;;5043398;28;19919;-60
2022/01/19 08:59:38;;;;;;;;;;;5.90;92.10;;;;;;5040765;28;20218;-60
2022/01/19 09:02:04;;;;;;;;;;;5.90;92.10;;;;;;4988503;28;1766867;-60
2022/01/19 09:04:30;;;;;;;;;;;6.00;92.00;;;;;;5048141;28;19913;-60
2022/01/19 09:06:57;;;;;;;;;;;6.00;92.10;;;;;;5074795;28;19923;-60
2022/01/19 09:09:23;;;;;;;;;;;6.00;92.00;;;;;;5064982;28;19926;-60
2022/01/19 09:11:48;;;;;;;;;;;6.00;92.10;;;;;;5044294;28;19928;-60
2022/01/19 09:14:14;;;;;;;;;;;6.00;92.00;;;;;;5075102;28;19931;-60
2022/01/19 09:16:39;;;;;;;;;;;6.00;92.10;;;;;;5056682;28;20033;-60
2022/01/19 09:19:06;;;;;;;;;;;6.00;92.10;;;;;;5056906;28;19916;-60
2022/01/19 09:21:31;;;;;;;;;;;6.00;92.10;;;;;;5064621;28;20011;-60
2022/01/19 09:23:57;;;;;;;;;;;6.00;92.10;;;;;;5060658;28;20011;-59
2022/01/19 09:26:22;;;;;;;;;;;6.10;92.10;;;;;;5077131;28;20363;-59
2022/01/19 09:28:48;;;;;;;;;;;6.00;92.10;;;;;;5044406;28;19919;-60
2022/01/19 09:31:16;;;;;;;;;;;6.00;92.10;;;;;;5051909;28;19920;-60
2022/01/19 09:33:43;;;;;;;;;;;5.90;92.10;;;;;;5060021;28;19912;-60
2022/01/19 09:36:29;;;;;;;;;;;6.10;92.20;;;;;;5034424;28;19924;-60
2022/01/19 09:38:54;;;;;;;;;;;6.10;92.20;;;;;;5052451;28;19917;-60
2022/01/19 09:41:20;;;;;;;;;;;6.10;92.20;;;;;;5052335;28;19923;-60
2022/01/19 09:43:45;;;;;;;;;;;6.10;92.20;;;;;;5045832;28;20271;-60
2022/01/19 09:46:11;;;;;;;;;;;6.20;92.10;;;;;;5051368;28;19912;-60
2022/01/19 09:48:36;;;;;;;;;;;6.20;92.00;;;;;;5079444;28;19920;-60
2022/01/19 09:51:02;;;;;;;;;;;6.20;92.10;;;;;;5054581;28;20389;-59
2022/01/19 09:53:28;;;;;;;;;;;6.20;92.00;;;;;;5059430;28;20112;-60
2022/01/19 09:55:53;;;;;;;;;;;6.20;92.00;;;;;;5073216;28;19920;-60
2022/01/19 09:58:21;;;;;;;;;;;6.20;92.10;;;;;;5043080;28;19920;-59
2022/01/19 10:00:47;;;;;;;;;;;6.20;92.00;;;;;;5053549;28;19924;-60
2022/01/19 10:03:15;;;;;;;;;;;6.20;92.00;;;;;;5049469;28;20404;-59
2022/01/19 10:05:54;;;;;;;;;;;6.20;91.90;;;;;;5049142;28;19916;-60
2022/01/19 10:08:29;;;;;;;;;;;6.20;91.80;;;;;;5052565;28;19920;-59
2022/01/19 10:11:16;;;;;;;;;;;6.20;91.80;;;;;;5036624;28;19916;-60
2022/01/19 10:19:22;;;;;;;;;;;6.10;91.70;;;;;;5052203;28;19943;-59
2022/01/19 10:21:59;;;;;;;;;;;6.20;91.80;;;;;;5046347;28;19917;-59
2022/01/19 10:24:40;;;;;;;;;;;6.20;91.70;;;;;;5056569;28;19913;-60
2022/01/19 10:27:22;;;;;;;;;;;6.20;91.70;;;;;;5060199;28;19924;-59
2022/01/19 10:29:48;;;;;;;;;;;6.20;91.70;;;;;;5041264;28;19924;-60
2022/01/19 10:32:13;;;;;;;;;;;6.10;91.70;;;;;;5042568;28;19928;-60
2022/01/19 10:34:39;;;;;;;;;;;6.10;91.80;;;;;;5060613;28;19924;-60
2022/01/19 10:37:05;;;;;;;;;;;6.20;91.90;;;;;;5042015;28;19913;-59
2022/01/19 10:39:39;;;;;;;;;;;6.20;91.90;;;;;;5058859;28;20379;-60
2022/01/19 10:42:06;;;;;;;;;;;6.20;92.00;;;;;;5053988;28;20030;-59
2022/01/19 10:44:35;;;;;;;;;;;6.20;92.20;;;;;;5042106;28;19912;-59
2022/01/19 10:47:01;;;;;;;;;;;6.20;91.80;;;;;;5042779;28;19959;-60
2022/01/19 10:49:26;;;;;;;;;;;6.20;91.80;;;;;;5049731;28;20590;-59
2022/01/19 10:51:56;;;;;;;;;;;6.20;91.80;;;;;;5038482;28;19974;-59
2022/01/19 10:54:25;;;;;;;;;;;6.20;91.70;;;;;;5036359;28;20319;-60
2022/01/19 10:56:57;;;;;;;;;;;6.20;91.70;;;;;;5027583;28;20056;-59
2022/01/19 10:59:29;;;;;;;;;;;6.20;91.80;;;;;;5028873;28;19924;-59
2022/01/19 11:01:56;;;;;;;;;;;6.20;91.80;;;;;;5038297;28;19963;-59
2022/01/19 11:04:21;;;;;;;;;;;6.20;91.70;;;;;;5069522;28;19923;-59
2022/01/19 11:06:47;;;;;;;;;;;6.20;91.70;;;;;;5070487;28;19924;-60
2022/01/19 11:09:14;;;;;;;;;;;6.20;91.70;;;;;;5064934;28;19924;-59
2022/01/19 11:11:45;;;;;;;;;;;6.20;91.60;;;;;;5060088;28;20295;-60
2022/01/19 11:14:13;;;;;;;;;;;6.20;91.70;;;;;;5078306;28;19912;-60
2022/01/19 11:16:39;;;;;;;;;;;6.20;91.80;;;;;;5070431;28;19920;-59
2022/01/19 11:19:05;;;;;;;;;;;6.20;91.80;;;;;;5064155;28;20008;-59
2022/01/19 11:21:30;;;;;;;;;;;6.20;91.80;;;;;;5061537;28;19916;-60
2022/01/19 11:24:00;;;;;;;;;;;6.20;91.70;;;;;;5066356;28;19920;-59
2022/01/19 11:26:29;;;;;;;;;;;6.20;91.70;;;;;;5074758;28;19912;-59
2022/01/19 11:28:55;;;;;;;;;;;6.20;91.70;;;;;;5073684;28;19920;-60
2022/01/19 11:31:24;;;;;;;;;;;6.20;91.70;;;;;;5073826;28;19917;-60
2022/01/19 11:33:53;;;;;;;;;;;6.30;91.80;;;;;;5070861;28;19919;-60
2022/01/19 11:36:20;;;;;;;;;;;6.20;91.80;;;;;;5075403;28;19916;-59
2022/01/19 11:38:46;;;;;;;;;;;6.20;91.70;;;;;;5073318;28;20018;-60
2022/01/19 11:41:15;;;;;;;;;;;6.20;91.60;;;;;;5063748;28;19912;-59
2022/01/19 11:43:56;;;;;;;;;;;6.30;91.60;;;;;;5074467;28;19916;-60
2022/01/19 11:46:31;;;;;;;;;;;6.20;91.60;;;;;;5076468;28;19973;-59
2022/01/19 11:48:58;;;;;;;;;;;6.30;91.60;;;;;;5070639;28;20210;-59
2022/01/19 11:51:23;;;;;;;;;;;6.30;91.60;;;;;;5062415;28;19931;-60
2022/01/19 11:54:19;;;;;;;;;;;6.30;91.60;;;;;;5072052;28;19916;-60
2022/01/19 11:56:59;;;;;;;;;;;6.30;91.60;;;;;;5054953;28;19954;-60
2022/01/19 11:59:26;;;;;;;;;;;6.30;91.60;;;;;;5076051;28;19988;-60
2022/01/19 12:01:52;;;;;;;;;;;6.60;91.80;;;;;;5092301;27;19928;-60
2022/01/19 12:04:18;;;;;;;;;;;6.30;91.70;;;;;;5078755;28;20190;-59
2022/01/19 12:06:44;;;;;;;;;;;6.30;91.60;;;;;;5078057;28;19916;-59
2022/01/19 12:09:11;;;;;;;;;;;6.30;91.60;;;;;;5076018;28;19950;-59
2022/01/19 12:11:38;;;;;;;;;;;6.40;91.70;;;;;;5064997;28;19982;-60
2022/01/19 12:14:12;;;;;;;;;;;6.40;91.70;;;;;;5087622;28;19919;-60
2022/01/19 12:19:06;;;;;;;;;;;6.40;91.70;;;;;;5081044;28;19931;-59
2022/01/19 12:21:31;;;;;;;;;;;6.40;91.60;;;;;;5082053;28;20387;-59
2022/01/19 12:24:32;;;;;;;;;;;6.40;91.60;;;;;;5070636;28;20002;-59
2022/01/19 12:26:59;;;;;;;;;;;6.40;91.50;;;;;;4991190;28;20160;-60
2022/01/19 12:29:34;;;;;;;;;;;6.40;91.50;;;;;;5042440;28;20088;-59
2022/01/19 12:32:03;;;;;;;;;;;6.50;91.60;;;;;;5071232;28;19928;-59
2022/01/19 12:34:42;;;;;;;;;;;6.50;91.60;;;;;;5056725;28;20411;-60
2022/01/19 12:37:07;;;;;;;;;;;6.50;91.70;;;;;;5077991;28;19928;-59
2022/01/19 12:39:34;;;;;;;;;;;6.50;91.70;;;;;;5073502;28;19981;-60
2022/01/19 12:42:00;;;;;;;;;;;6.50;91.60;;;;;;5065700;28;19916;-60
2022/01/19 12:44:34;;;;;;;;;;;6.60;91.60;;;;;;5059388;28;19928;-59
2022/01/19 12:47:00;;;;;;;;;;;6.60;91.70;;;;;;5077006;28;19916;-59
2022/01/19 12:49:26;;;;;;;;;;;6.70;91.80;;;;;;5049692;28;19916;-59
2022/01/19 12:51:52;;;;;;;;;;;6.70;91.70;;;;;;5075861;28;19929;-59
2022/01/19 12:54:19;;;;;;;;;;;6.70;91.80;;;;;;5056001;28;20512;-60
2022/01/19 12:56:52;;;;;;;;;;;6.70;91.70;;;;;;5069716;28;19977;-60
2022/01/19 12:59:17;;;;;;;;;;;6.70;91.60;;;;;;5089406;28;20382;-60
2022/01/19 13:01:42;;;;;;;;;;;6.70;91.60;;;;;;5047599;28;19928;-59
2022/01/19 13:04:08;;;;;;;;;;;6.70;91.70;;;;;;5034336;28;20376;-60
2022/01/19 13:06:35;;;;;;;;;;;6.70;91.60;;;;;;5029540;28;19920;-60
2022/01/19 13:09:08;;;;;;;;;;;6.60;91.50;;;;;;5039986;28;19931;-60
2022/01/19 13:11:38;;;;;;;;;;;6.70;91.50;;;;;;5023945;28;21442;-59
2022/01/19 13:14:07;;;;;;;;;;;6.80;91.50;;;;;;5021512;28;20066;-60
2022/01/19 13:16:33;;;;;;;;;;;6.80;91.50;;;;;;5009475;28;20102;-59
2022/01/19 13:18:59;;;;;;;;;;;6.80;91.60;;;;;;5029506;28;20532;-59
2022/01/19 13:21:25;;;;;;;;;;;6.80;91.60;;;;;;5037051;28;20370;-60
2022/01/19 13:23:54;;;;;;;;;;;6.80;91.70;;;;;;5010007;28;20499;-60
2022/01/19 13:26:19;;;;;;;;;;;6.80;91.80;;;;;;5037089;28;19924;-59
2022/01/19 13:28:45;;;;;;;;;;;6.80;91.70;;;;;;5050066;28;20414;-60
2022/01/19 13:31:14;;;;;;;;;;;6.80;91.70;;;;;;5034572;28;19983;-60
2022/01/19 13:33:41;;;;;;;;;;;6.80;91.70;;;;;;5038571;28;19931;-59
2022/01/19 13:36:06;;;;;;;;;;;6.80;91.60;;;;;;5056255;28;20056;-59
2022/01/19 13:38:32;;;;;;;;;;;6.80;91.60;;;;;;5054435;28;20412;-60
2022/01/19 13:41:01;;;;;;;;;;;6.80;91.50;;;;;;5051077;28;19935;-59
2022/01/19 13:43:26;;;;;;;;;;;6.70;91.50;;;;;;5054442;28;19957;-60
2022/01/19 13:46:01;;;;;;;;;;;6.80;91.50;;;;;;5053101;28;19999;-59
2022/01/19 13:48:28;;;;;;;;;;;6.80;91.50;;;;;;5029758;28;19973;-60
2022/01/19 13:51:04;;;;;;;;;;;6.80;91.50;;;;;;5031468;28;19925;-60
2022/01/19 13:53:35;;;;;;;;;;;6.80;91.50;;;;;;5052482;28;19986;-60
2022/01/19 13:56:01;;;;;;;;;;;6.80;91.50;;;;;;5050153;28;19917;-59
2022/01/19 13:58:53;;;;;;;;;;;6.80;91.50;;;;;;5058174;28;19924;-59
2022/01/19 14:01:22;;;;;;;;;;;6.80;91.40;;;;;;5044348;28;19932;-59
2022/01/19 14:03:49;;;;;;;;;;;7.00;91.50;;;;;;5046830;28;20680;-59
2022/01/19 14:06:30;;;;;;;;;;;6.80;91.40;;;;;;5049392;28;19992;-59
2022/01/19 14:09:07;;;;;;;;;;;6.90;91.40;;;;;;5060349;28;20403;-59
2022/01/19 14:11:33;;;;;;;;;;;6.90;91.40;;;;;;5070442;28;19928;-60
2022/01/19 14:13:59;;;;;;;;;;;6.80;91.40;;;;;;5067313;28;19974;-59
2022/01/19 14:16:30;;;;;;;;;;;6.90;91.40;;;;;;5050539;28;19919;-60
2022/01/19 14:19:12;;;;;;;;;;;6.90;91.40;;;;;;5070536;28;19916;-59
2022/01/19 14:57:32;;;;;;;;;;;7.20;91.10;;;;;;6214694;22;1232874;-64
2022/01/19 14:59:57;;;;;;;114.15;26.33;;;7.20;91.10;;;;;;6236749;23;20499;-65
2022/01/19 15:02:24;;;;;;;118.53;30.42;;;7.20;91.10;;;;;;6184469;23;20011;-63
2022/01/19 15:04:50;;;;;;;118.85;26.90;;;7.20;91.20;;;;;;6183897;23;20011;-62
2022/01/19 15:07:16;;;;;;;117.20;29.70;;;7.10;91.10;;;;;;6182877;23;20008;-59
2022/01/19 15:09:42;;;;;;;127.65;28.40;;;7.20;91.20;;;;;;6182148;23;20106;-62
2022/01/19 15:12:09;;;;;;;129.02;29.52;;;7.20;91.20;;;;;;6209648;23;20006;-62
2022/01/19 15:14:35;;;;;;;138.98;29.75;;;7.10;91.20;;;;;;6208667;23;20043;-62
2022/01/19 15:17:00;;;;;;;119.90;31.95;;;7.20;91.30;;;;;;6235386;23;20003;-60
2022/01/19 15:19:26;;;;;;;130.48;29.98;;;7.20;91.30;;;;;;6186158;23;20704;-62
2022/01/19 15:21:51;;;;;;;139.23;32.05;;;7.20;91.30;;;;;;6184892;23;20034;-62
2022/01/19 15:24:17;;;;;;;126.22;31.45;;;7.20;91.50;;;;;;6185709;23;20378;-59
2022/01/19 15:26:42;;;;;;;112.50;28.35;;;7.20;91.50;;;;;;6209759;23;20495;-63
2022/01/19 15:29:08;;;;;;;118.88;29.75;;;7.20;91.40;;;;;;6209595;23;20325;-60
2022/01/19 15:31:34;;;;;;;114.35;29.48;;;7.20;91.50;;;;;;6184994;23;20038;-61
2022/01/19 15:33:59;;;;;;;127.03;28.65;;;7.20;91.50;;;;;;6206171;23;20566;-59
2022/01/19 15:36:25;;;;;;;143.98;33.17;;;7.20;91.40;;;;;;6174515;23;20024;-61
2022/01/19 15:38:53;;;;;;;134.52;31.60;;;7.20;91.40;;;;;;6177521;23;20358;-62
2022/01/19 15:41:18;;;;;;;146.23;31.65;;;7.20;91.50;;;;;;6176953;23;20093;-62
2022/01/19 15:43:44;;;;;;;127.88;30.10;;;7.20;91.60;;;;;;6177112;23;20192;-61
2022/01/19 15:46:09;;;;;;;120.95;29.33;;;7.20;91.60;;;;;;6224929;23;20068;-61
2022/01/19 15:48:35;;;;;;;103.65;29.05;;;7.20;91.60;;;;;;6176826;23;20085;-62
2022/01/19 15:51:00;;;;;;;105.78;27.95;;;7.30;91.60;;;;;;6173168;23;20009;-62
2022/01/19 15:53:26;;;;;;;107.65;27.73;;;7.30;91.50;;;;;;6201803;23;20007;-61
2022/01/19 15:55:55;;;;;;;114.63;29.38;;;7.30;91.40;;;;;;6197829;23;20767;-64
2022/01/19 15:58:21;;;;;;;106.40;29.58;;;7.30;91.40;;;;;;6176221;23;20016;-62
2022/01/19 16:00:47;;;;;;;128.48;31.27;;;7.30;91.50;;;;;;6194302;23;20058;-59
2022/01/19 16:03:13;;;;;;;138.60;28.55;;;7.30;91.60;;;;;;6149611;23;20012;-62
2022/01/19 16:05:39;;;;;;;129.68;30.45;;;7.30;91.60;;;;;;6175655;23;20000;-62
2022/01/19 16:08:04;;;;;;;103.15;29.48;;;7.30;91.40;;;;;;6201167;23;20008;-63
2022/01/19 16:10:31;;;;;;;105.55;28.27;;;7.30;91.40;;;;;;6153289;23;20433;-62
2022/01/19 16:12:56;;;;;;;119.30;29.67;;;7.30;91.40;;;;;;6173805;23;20012;-60
2022/01/19 16:15:22;;;;;;;139.30;30.77;;;7.20;91.40;;;;;;6174741;23;20008;-61
2022/01/19 16:17:47;;;;;;;135.93;31.00;;;7.30;91.50;;;;;;6174835;23;20397;-62
2022/01/19 16:20:13;;;;;;;132.68;31.05;;;7.20;91.50;;;;;;6175544;23;20065;-64
2022/01/19 16:28:08;;;;;;;150.52;31.92;;;7.30;91.60;;;;;;6185122;23;20011;-62
2022/01/19 16:30:33;;;;;;;110.47;28.17;;;7.30;91.40;;;;;;6151219;23;20019;-62